createdAt,value
2019-03-31T00:00:03.300Z,1022.2
2019-03-31T00:01:09.015Z,1022.1
2019-03-31T00:02:03.922Z,1022.1
2019-03-31T00:03:03.092Z,1022.2
2019-03-31T00:04:03.084Z,1022.2
2019-03-31T00:05:03.103Z,1022.2
2019-03-31T00:06:03.686Z,1022.1
2019-03-31T00:07:03.191Z,1022.1
2019-03-31T00:08:03.923Z,1022.1
2019-03-31T00:09:03.986Z,1022.2
2019-03-31T00:10:04.066Z,1022.1
2019-03-31T00:11:03.149Z,1022.1
2019-03-31T00:12:04.007Z,1022.1
2019-03-31T00:13:04.156Z,1022.1
2019-03-31T00:14:03.713Z,1022.1
2019-03-31T00:15:03.959Z,1022.2
2019-03-31T00:16:03.939Z,1022.1
2019-03-31T00:17:03.727Z,1022
2019-03-31T00:18:03.278Z,1022.2
2019-03-31T00:19:03.649Z,1022.2
2019-03-31T00:20:03.540Z,1022
2019-03-31T00:21:03.367Z,1022.1
2019-03-31T00:22:03.352Z,1022.1
2019-03-31T00:23:03.567Z,1022
2019-03-31T00:24:03.279Z,1022.2
2019-03-31T00:25:03.411Z,1022.2
2019-03-31T00:26:03.188Z,1022.2
2019-03-31T00:27:03.279Z,1022.1
2019-03-31T00:28:03.448Z,1022.2
2019-03-31T00:29:03.168Z,1022.2
2019-03-31T00:30:03.492Z,1022.3
2019-03-31T00:31:03.523Z,1022.2
2019-03-31T00:32:02.838Z,1022.2
2019-03-31T00:33:02.975Z,1022.1
2019-03-31T00:34:03.067Z,1022.1
2019-03-31T00:35:03.232Z,1022.2
2019-03-31T00:36:04.054Z,1022.5
2019-03-31T00:37:02.830Z,1022.3
2019-03-31T00:38:02.922Z,1022.2
2019-03-31T00:39:03.898Z,1022.4
2019-03-31T00:40:03.914Z,1022.2
2019-03-31T00:41:03.731Z,1022.3
2019-03-31T00:42:03.987Z,1022.2
2019-03-31T00:43:03.691Z,1022.3
2019-03-31T00:44:03.751Z,1022.4
2019-03-31T00:45:03.627Z,1022.3
2019-03-31T00:46:03.510Z,1022.3
2019-03-31T00:47:03.516Z,1022.3
2019-03-31T00:48:03.545Z,1022.3
2019-03-31T00:49:03.597Z,1022.4
2019-03-31T00:50:03.228Z,1022.2
2019-03-31T00:51:03.406Z,1022.2
2019-03-31T00:52:03.341Z,1022.2
2019-03-31T00:53:03.319Z,1022.2
2019-03-31T00:54:03.287Z,1022.2
2019-03-31T00:55:03.599Z,1022.1
2019-03-31T00:56:03.230Z,1022.2
2019-03-31T00:57:03.187Z,1022.2
2019-03-31T00:58:03.785Z,1022.2
2019-03-31T00:59:03.099Z,1022.2
2019-03-31T01:00:03.482Z,1022.2
2019-03-31T01:01:03.001Z,1022.1
2019-03-31T01:02:03.348Z,1022.1
2019-03-31T01:03:03.249Z,1022.2
2019-03-31T01:04:03.460Z,1022.1
2019-03-31T01:05:03.202Z,1022.2
2019-03-31T01:06:03.239Z,1022.1
2019-03-31T01:07:03.313Z,1022.2
2019-03-31T01:08:03.210Z,1022.3
2019-03-31T01:09:03.099Z,1022.2
2019-03-31T01:10:03.332Z,1022.2
2019-03-31T01:11:03.901Z,1022.1
2019-03-31T01:12:03.078Z,1022.1
2019-03-31T01:13:03.074Z,1022.2
2019-03-31T01:14:03.822Z,1022.2
2019-03-31T01:15:03.908Z,1022.2
2019-03-31T01:16:03.294Z,1022.2
2019-03-31T01:17:03.997Z,1022.2
2019-03-31T01:18:03.928Z,1022.1
2019-03-31T01:19:03.810Z,1022.1
2019-03-31T01:20:03.698Z,1022.1
2019-03-31T01:21:03.423Z,1022.2
2019-03-31T01:22:03.156Z,1022.1
2019-03-31T01:23:03.572Z,1022.1
2019-03-31T01:24:03.327Z,1022.1
2019-03-31T01:25:03.548Z,1022.1
2019-03-31T01:26:03.633Z,1022.1
2019-03-31T01:27:03.398Z,1022.2
2019-03-31T01:28:03.356Z,1022.1
2019-03-31T01:29:03.369Z,1022.1
2019-03-31T01:30:03.798Z,1022.1
2019-03-31T01:31:03.315Z,1022.2
2019-03-31T01:32:03.018Z,1022.2
2019-03-31T01:33:03.418Z,1022.1
2019-03-31T01:34:03.043Z,1022.1
2019-03-31T01:35:03.371Z,1022.3
2019-03-31T01:36:03.212Z,1022.2
2019-03-31T01:37:03.227Z,1022.2
2019-03-31T01:38:02.910Z,1022.1
2019-03-31T01:39:03.310Z,1022.2
2019-03-31T01:40:02.920Z,1022.2
2019-03-31T01:41:03.314Z,1022.2
2019-03-31T01:42:04.003Z,1022.2
2019-03-31T01:43:02.969Z,1022.2
2019-03-31T01:44:03.961Z,1022.2
2019-03-31T01:45:03.699Z,1022.2
2019-03-31T01:46:03.812Z,1022.2
2019-03-31T01:47:03.887Z,1022.2
2019-03-31T01:48:03.876Z,1022.2
2019-03-31T01:49:03.612Z,1022.1
2019-03-31T01:50:03.784Z,1022.1
2019-03-31T01:51:03.700Z,1022.2
2019-03-31T01:52:03.636Z,1022.1
2019-03-31T01:53:03.530Z,1022.2
2019-03-31T01:54:03.708Z,1022.3
2019-03-31T01:55:03.787Z,1022.2
2019-03-31T01:56:03.116Z,1022.2
2019-03-31T01:57:03.458Z,1022.2
2019-03-31T01:58:03.283Z,1022.3
2019-03-31T01:59:03.548Z,1022.3
2019-03-31T02:00:03.553Z,1022.3
2019-03-31T02:01:03.562Z,1022.4
2019-03-31T02:02:05.294Z,1022.3
2019-03-31T02:03:03.884Z,1022.2
2019-03-31T02:04:03.311Z,1022.3
2019-03-31T02:05:03.267Z,1022.1
2019-03-31T02:06:03.249Z,1022.3
2019-03-31T02:07:02.992Z,1022.2
2019-03-31T02:08:03.217Z,1022.3
2019-03-31T02:09:03.836Z,1022.2
2019-03-31T02:10:03.177Z,1022.2
2019-03-31T02:11:03.101Z,1022.2
2019-03-31T02:12:02.873Z,1022.2
2019-03-31T02:13:04.377Z,1022.1
2019-03-31T02:14:03.229Z,1022.2
2019-03-31T02:15:03.085Z,1022.1
2019-03-31T02:16:03.134Z,1022.1
2019-03-31T02:17:03.900Z,1022.2
2019-03-31T02:18:03.698Z,1022.1
2019-03-31T02:19:03.806Z,1022.1
2019-03-31T02:20:03.734Z,1022.2
2019-03-31T02:21:03.856Z,1022.1
2019-03-31T02:22:03.837Z,1022.1
2019-03-31T02:23:03.928Z,1022.2
2019-03-31T02:24:03.759Z,1022.2
2019-03-31T02:25:03.840Z,1022.2
2019-03-31T02:26:03.868Z,1022.1
2019-03-31T02:27:03.523Z,1022.1
2019-03-31T02:28:03.591Z,1022.1
2019-03-31T02:29:03.587Z,1022.2
2019-03-31T02:30:03.745Z,1022.2
2019-03-31T02:31:03.646Z,1022.1
2019-03-31T02:32:25.144Z,1022.1
2019-03-31T02:33:03.323Z,1022.1
2019-03-31T02:34:03.501Z,1022.1
2019-03-31T02:35:03.474Z,1022
2019-03-31T02:36:03.321Z,1022.1
2019-03-31T02:37:03.181Z,1022.1
2019-03-31T02:38:03.191Z,1022.1
2019-03-31T02:39:03.101Z,1022.1
2019-03-31T02:40:03.180Z,1022.1
2019-03-31T02:41:03.858Z,1022.1
2019-03-31T02:42:03.263Z,1022.1
2019-03-31T02:43:03.905Z,1022.1
2019-03-31T02:44:03.630Z,1022
2019-03-31T02:45:04.368Z,1022
2019-03-31T02:46:04.110Z,1022
2019-03-31T02:47:03.921Z,1022
2019-03-31T02:48:03.619Z,1022
2019-03-31T02:49:03.823Z,1022
2019-03-31T02:50:03.800Z,1022
2019-03-31T02:51:03.682Z,1021.9
2019-03-31T02:52:03.694Z,1022
2019-03-31T02:53:03.674Z,1022
2019-03-31T02:54:03.507Z,1021.9
2019-03-31T02:55:03.447Z,1021.9
2019-03-31T02:56:03.512Z,1022
2019-03-31T02:57:03.107Z,1022
2019-03-31T02:58:03.334Z,1021.9
2019-03-31T02:59:02.956Z,1022
2019-03-31T03:00:03.593Z,1021.9
2019-03-31T03:01:03.323Z,1021.9
2019-03-31T03:02:03.326Z,1021.8
2019-03-31T03:03:03.263Z,1021.9
2019-03-31T03:04:02.915Z,1021.8
2019-03-31T03:05:20.825Z,1021.8
2019-03-31T03:06:03.261Z,1021.8
2019-03-31T03:07:03.069Z,1022
2019-03-31T03:08:03.827Z,1021.9
2019-03-31T03:09:03.093Z,1021.9
2019-03-31T03:10:03.750Z,1021.9
2019-03-31T03:11:03.792Z,1021.9
2019-03-31T03:12:03.915Z,1021.9
2019-03-31T03:13:03.947Z,1021.9
2019-03-31T03:14:03.940Z,1021.9
2019-03-31T03:15:03.770Z,1021.9
2019-03-31T03:16:03.516Z,1021.9
2019-03-31T03:17:03.677Z,1021.9
2019-03-31T03:18:03.523Z,1022
2019-03-31T03:19:03.445Z,1021.9
2019-03-31T03:20:03.642Z,1021.9
2019-03-31T03:21:03.638Z,1022
2019-03-31T03:22:03.741Z,1022
2019-03-31T03:23:03.222Z,1021.9
2019-03-31T03:24:03.524Z,1022.1
2019-03-31T03:25:03.178Z,1021.9
2019-03-31T03:26:03.601Z,1021.9
2019-03-31T03:27:03.265Z,1021.9
2019-03-31T03:28:03.348Z,1022.1
2019-03-31T03:29:03.198Z,1022.1
2019-03-31T03:30:03.429Z,1022.1
2019-03-31T03:31:16.782Z,1022
2019-03-31T03:32:04.075Z,1022.1
2019-03-31T03:33:21.106Z,1022
2019-03-31T03:34:03.293Z,1022.1
2019-03-31T03:35:03.065Z,1022
2019-03-31T03:36:03.827Z,1022.1
2019-03-31T03:37:03.790Z,1022.1
2019-03-31T03:38:03.805Z,1022.1
2019-03-31T03:39:04.020Z,1022.1
2019-03-31T03:40:03.817Z,1022.1
2019-03-31T03:41:04.073Z,1022.1
2019-03-31T03:42:03.775Z,1021.9
2019-03-31T03:43:03.771Z,1021.9
2019-03-31T03:44:03.664Z,1022.1
2019-03-31T03:45:03.839Z,1022.1
2019-03-31T03:46:04.140Z,1021.9
2019-03-31T03:47:03.659Z,1021.9
2019-03-31T03:48:03.549Z,1022
2019-03-31T03:49:04.163Z,1022
2019-03-31T03:50:03.651Z,1022
2019-03-31T03:51:03.382Z,1022
2019-03-31T03:52:03.405Z,1022
2019-03-31T03:53:03.514Z,1022
2019-03-31T03:54:03.427Z,1022
2019-03-31T03:55:03.554Z,1022.1
2019-03-31T03:56:03.145Z,1022
2019-03-31T03:57:03.442Z,1022
2019-03-31T03:58:03.422Z,1022.1
2019-03-31T03:59:03.204Z,1022
2019-03-31T04:00:02.980Z,1022
2019-03-31T04:01:03.300Z,1022.1
2019-03-31T04:02:03.337Z,1022.2
2019-03-31T04:03:04.317Z,1022.1
2019-03-31T04:04:03.089Z,1022.1
2019-03-31T04:05:03.181Z,1022.1
2019-03-31T04:06:03.067Z,1022.1
2019-03-31T04:07:03.791Z,1022.1
2019-03-31T04:08:03.128Z,1022.1
2019-03-31T04:09:03.016Z,1022.1
2019-03-31T04:10:03.060Z,1022.1
2019-03-31T04:11:03.967Z,1022.1
2019-03-31T04:12:03.618Z,1022.1
2019-03-31T04:13:03.759Z,1022.1
2019-03-31T04:14:03.842Z,1022.1
2019-03-31T04:15:03.908Z,1022.2
2019-03-31T04:16:03.599Z,1022.2
2019-03-31T04:17:03.770Z,1022.2
2019-03-31T04:18:03.586Z,1022.2
2019-03-31T04:19:04.060Z,1022.3
2019-03-31T04:20:03.590Z,1022.2
2019-03-31T04:21:03.728Z,1022.2
2019-03-31T04:22:03.724Z,1022.2
2019-03-31T04:23:03.467Z,1022.2
2019-03-31T04:24:03.223Z,1022.2
2019-03-31T04:25:03.462Z,1022.2
2019-03-31T04:26:03.255Z,1022.2
2019-03-31T04:27:03.021Z,1022.2
2019-03-31T04:28:03.133Z,1022.2
2019-03-31T04:29:03.344Z,1022.2
2019-03-31T04:30:03.322Z,1022.2
2019-03-31T04:31:03.968Z,1022.3
2019-03-31T04:32:03.329Z,1022.2
2019-03-31T04:33:03.430Z,1022.2
2019-03-31T04:34:03.383Z,1022.2
2019-03-31T04:35:03.197Z,1022.2
2019-03-31T04:36:03.070Z,1022.2
2019-03-31T04:37:02.957Z,1022.2
2019-03-31T04:38:04.005Z,1022.2
2019-03-31T04:39:03.817Z,1022.2
2019-03-31T04:40:03.733Z,1022.2
2019-03-31T04:41:02.989Z,1022.3
2019-03-31T04:42:04.055Z,1022.3
2019-03-31T04:43:03.971Z,1022.2
2019-03-31T04:44:03.653Z,1022.3
2019-03-31T04:45:03.901Z,1022.3
2019-03-31T04:46:03.561Z,1022.3
2019-03-31T04:47:03.676Z,1022.1
2019-03-31T04:48:03.611Z,1022.1
2019-03-31T04:49:03.397Z,1022.2
2019-03-31T04:50:03.480Z,1022.3
2019-03-31T04:51:03.268Z,1022.3
2019-03-31T04:52:03.391Z,1022.3
2019-03-31T04:53:03.524Z,1022.3
2019-03-31T04:54:03.491Z,1022.3
2019-03-31T04:55:03.059Z,1022.2
2019-03-31T04:56:03.350Z,1022.3
2019-03-31T04:57:05.084Z,1022.3
2019-03-31T04:58:03.089Z,1022.3
2019-03-31T04:59:03.142Z,1022.3
2019-03-31T05:00:03.317Z,1022.3
2019-03-31T05:01:03.011Z,1022.3
2019-03-31T05:02:03.931Z,1022.4
2019-03-31T05:03:03.083Z,1022.3
2019-03-31T05:04:05.932Z,1022.4
2019-03-31T05:05:04.080Z,1022.4
2019-03-31T05:06:03.885Z,1022.4
2019-03-31T05:07:04.025Z,1022.3
2019-03-31T05:08:03.722Z,1022.3
2019-03-31T05:09:03.960Z,1022.3
2019-03-31T05:10:03.590Z,1022.4
2019-03-31T05:11:02.919Z,1022.3
2019-03-31T05:12:03.628Z,1022.3
2019-03-31T05:13:03.561Z,1022.3
2019-03-31T05:14:03.800Z,1022.5
2019-03-31T05:15:03.419Z,1022.4
2019-03-31T05:16:03.543Z,1022.4
2019-03-31T05:17:03.554Z,1022.5
2019-03-31T05:18:04.955Z,1022.4
2019-03-31T05:19:03.255Z,1022.5
2019-03-31T05:20:03.580Z,1022.4
2019-03-31T05:21:03.207Z,1022.4
2019-03-31T05:22:03.177Z,1022.3
2019-03-31T05:23:02.910Z,1022.3
2019-03-31T05:24:03.470Z,1022.4
2019-03-31T05:25:03.463Z,1022.4
2019-03-31T05:26:03.250Z,1022.4
2019-03-31T05:27:03.153Z,1022.4
2019-03-31T05:28:03.110Z,1022.4
2019-03-31T05:29:03.031Z,1022.4
2019-03-31T05:30:04.137Z,1022.4
2019-03-31T05:31:03.133Z,1022.4
2019-03-31T05:32:03.865Z,1022.4
2019-03-31T05:33:03.091Z,1022.4
2019-03-31T05:34:20.031Z,1022.4
2019-03-31T05:35:03.109Z,1022.4
2019-03-31T05:36:04.198Z,1022.4
2019-03-31T05:37:03.838Z,1022.4
2019-03-31T05:38:03.827Z,1022.4
2019-03-31T05:39:03.855Z,1022.5
2019-03-31T05:40:03.761Z,1022.5
2019-03-31T05:41:03.351Z,1022.4
2019-03-31T05:42:03.684Z,1022.5
2019-03-31T05:43:03.559Z,1022.4
2019-03-31T05:44:06.527Z,1022.4
2019-03-31T05:45:03.629Z,1022.4
2019-03-31T05:46:03.730Z,1022.3
2019-03-31T05:47:03.402Z,1022.4
2019-03-31T05:48:03.350Z,1022.4
2019-03-31T05:49:03.684Z,1022.4
2019-03-31T05:50:03.197Z,1022.5
2019-03-31T05:51:03.286Z,1022.4
2019-03-31T05:52:03.236Z,1022.4
2019-03-31T05:53:03.193Z,1022.4
2019-03-31T05:54:03.750Z,1022.3
2019-03-31T05:55:03.377Z,1022.3
2019-03-31T05:56:03.035Z,1022.4
2019-03-31T05:57:03.938Z,1022.4
2019-03-31T05:58:03.913Z,1022.4
2019-03-31T05:59:03.739Z,1022.3
2019-03-31T06:00:03.576Z,1022.4
2019-03-31T06:01:03.650Z,1022.4
2019-03-31T06:02:03.942Z,1022.3
2019-03-31T06:03:03.809Z,1022.4
2019-03-31T06:04:03.491Z,1022.4
2019-03-31T06:05:03.918Z,1022.4
2019-03-31T06:06:03.847Z,1022.4
2019-03-31T06:07:03.512Z,1022.4
2019-03-31T06:08:03.732Z,1022.4
2019-03-31T06:09:03.250Z,1022.4
2019-03-31T06:10:03.531Z,1022.2
2019-03-31T06:11:03.294Z,1022.2
2019-03-31T06:12:03.267Z,1022.3
2019-03-31T06:13:03.322Z,1022.3
2019-03-31T06:14:03.379Z,1022.3
2019-03-31T06:15:03.297Z,1022.2
2019-03-31T06:16:03.171Z,1022.3
2019-03-31T06:17:03.102Z,1022.3
2019-03-31T06:18:04.014Z,1022.1
2019-03-31T06:19:03.983Z,1022.2
2019-03-31T06:20:04.060Z,1022.1
2019-03-31T06:21:03.769Z,1022.1
2019-03-31T06:22:03.910Z,1022.2
2019-03-31T06:23:03.904Z,1022.2
2019-03-31T06:24:03.685Z,1022.2
2019-03-31T06:25:03.867Z,1022.1
2019-03-31T06:26:03.877Z,1022.2
2019-03-31T06:27:03.522Z,1022.2
2019-03-31T06:28:03.738Z,1022
2019-03-31T06:29:03.620Z,1022
2019-03-31T06:30:03.760Z,1022.1
2019-03-31T06:31:03.356Z,1022.1
2019-03-31T06:32:03.767Z,1022
2019-03-31T06:33:03.389Z,1022.1
2019-03-31T06:34:03.457Z,1022.1
2019-03-31T06:35:03.558Z,1022
2019-03-31T06:36:03.313Z,1022
2019-03-31T06:37:03.190Z,1022
2019-03-31T06:38:03.104Z,1021.9
2019-03-31T06:39:03.268Z,1021.9
2019-03-31T06:40:04.036Z,1021.9
2019-03-31T06:41:03.953Z,1022
2019-03-31T06:42:03.095Z,1021.8
2019-03-31T06:43:03.004Z,1021.9
2019-03-31T06:44:03.006Z,1021.9
2019-03-31T06:45:03.999Z,1021.9
2019-03-31T06:46:02.977Z,1022
2019-03-31T06:47:03.514Z,1022
2019-03-31T06:48:03.590Z,1022
2019-03-31T06:49:03.673Z,1021.8
2019-03-31T06:50:04.012Z,1021.8
2019-03-31T06:51:03.401Z,1021.9
2019-03-31T06:52:03.429Z,1021.7
2019-03-31T06:53:03.458Z,1021.7
2019-03-31T06:54:03.439Z,1021.6
2019-03-31T06:55:03.471Z,1021.7
2019-03-31T06:56:03.548Z,1021.6
2019-03-31T06:57:02.983Z,1021.5
2019-03-31T06:58:03.077Z,1021.5
2019-03-31T06:59:03.363Z,1021.5
2019-03-31T07:00:03.519Z,1021.3
2019-03-31T07:01:03.269Z,1021.4
2019-03-31T07:02:03.958Z,1021.4
2019-03-31T07:03:03.142Z,1021.3
2019-03-31T07:04:03.089Z,1021.5
2019-03-31T07:05:03.798Z,1021.3
2019-03-31T07:06:03.701Z,1021.2
2019-03-31T07:07:03.772Z,1021.2
2019-03-31T07:08:03.727Z,1021.4
2019-03-31T07:09:03.590Z,1021.3
2019-03-31T07:10:03.846Z,1021.2
2019-03-31T07:11:03.852Z,1021.3
2019-03-31T07:12:03.405Z,1021.2
2019-03-31T07:13:03.828Z,1021.3
2019-03-31T07:14:03.776Z,1021.1
2019-03-31T07:15:03.737Z,1021
2019-03-31T07:16:03.669Z,1021.1
2019-03-31T07:17:03.764Z,1021.1
2019-03-31T07:18:03.368Z,1021
2019-03-31T07:19:03.203Z,1020.9
2019-03-31T07:20:03.211Z,1021
2019-03-31T07:21:03.410Z,1021
2019-03-31T07:22:03.380Z,1021
2019-03-31T07:23:03.260Z,1021
2019-03-31T07:24:03.359Z,1021.1
2019-03-31T07:25:03.341Z,1021
2019-03-31T07:26:03.134Z,1021.1
2019-03-31T07:27:02.945Z,1020.9
2019-03-31T07:28:03.033Z,1021
2019-03-31T07:29:03.764Z,1020.9
2019-03-31T07:30:07.617Z,1020.9
2019-03-31T07:31:03.762Z,1021
2019-03-31T07:32:04.211Z,1021
2019-03-31T07:33:03.950Z,1021
2019-03-31T07:34:03.976Z,1021
2019-03-31T07:35:19.417Z,1021
2019-03-31T07:36:03.726Z,1020.9
2019-03-31T07:37:03.793Z,1020.9
2019-03-31T07:38:03.488Z,1020.8
2019-03-31T07:39:04.227Z,1020.8
2019-03-31T07:40:04.717Z,1020.9
2019-03-31T07:41:15.399Z,1020.9
2019-03-31T07:42:05.052Z,1020.8
2019-03-31T07:43:04.027Z,1020.8
2019-03-31T07:44:03.517Z,1020.7
2019-03-31T07:45:03.448Z,1020.8
2019-03-31T07:46:03.341Z,1020.7
2019-03-31T07:47:03.050Z,1020.6
2019-03-31T07:48:03.457Z,1020.7
2019-03-31T07:49:03.080Z,1020.6
2019-03-31T07:50:03.720Z,1020.6
2019-03-31T07:51:02.919Z,1020.6
2019-03-31T07:52:03.521Z,1020.6
2019-03-31T07:53:03.061Z,1020.6
2019-03-31T07:54:03.206Z,1020.6
2019-03-31T07:55:03.226Z,1020.5
2019-03-31T07:56:03.128Z,1020.5
2019-03-31T07:57:03.151Z,1020.5
2019-03-31T07:58:03.954Z,1020.7
2019-03-31T07:59:03.504Z,1020.6
2019-03-31T08:00:04.045Z,1020.6
2019-03-31T08:01:03.080Z,1020.6
2019-03-31T08:02:03.642Z,1020.6
2019-03-31T08:03:03.210Z,1020.6
2019-03-31T08:04:03.567Z,1020.6
2019-03-31T08:05:03.958Z,1020.6
2019-03-31T08:06:03.680Z,1020.6
2019-03-31T08:07:03.391Z,1020.6
2019-03-31T08:08:03.520Z,1020.6
2019-03-31T08:09:03.662Z,1020.5
2019-03-31T08:10:03.674Z,1020.5
2019-03-31T08:11:03.185Z,1020.5
2019-03-31T08:12:03.342Z,1020.5
2019-03-31T08:13:03.300Z,1020.5
2019-03-31T08:14:03.101Z,1020.4
2019-03-31T08:15:03.400Z,1020.4
2019-03-31T08:16:02.826Z,1020.4
2019-03-31T08:17:03.086Z,1020.3
2019-03-31T08:18:03.790Z,1020.3
2019-03-31T08:19:03.139Z,1020.4
2019-03-31T08:20:03.028Z,1020.4
2019-03-31T08:21:03.971Z,1020.3
2019-03-31T08:22:03.649Z,1020.2
2019-03-31T08:23:03.876Z,1020.3
2019-03-31T08:24:07.262Z,1020.3
2019-03-31T08:25:03.849Z,1020.2
2019-03-31T08:26:03.603Z,1020.2
2019-03-31T08:27:06.066Z,1020.2
2019-03-31T08:28:03.184Z,1020.1
2019-03-31T08:29:03.795Z,1020
2019-03-31T08:30:03.753Z,1020
2019-03-31T08:31:03.174Z,1020.1
2019-03-31T08:32:03.512Z,1020
2019-03-31T08:33:03.505Z,1020
2019-03-31T08:34:03.523Z,1020
2019-03-31T08:35:03.429Z,1020
2019-03-31T08:36:03.647Z,1019.9
2019-03-31T08:37:03.147Z,1019.9
2019-03-31T08:38:03.418Z,1019.9
2019-03-31T08:39:03.084Z,1019.8
2019-03-31T08:40:03.360Z,1019.8
2019-03-31T08:41:03.908Z,1019.8
2019-03-31T08:42:03.885Z,1019.8
2019-03-31T08:43:02.980Z,1019.8
2019-03-31T08:44:03.933Z,1019.9
2019-03-31T08:45:02.941Z,1019.9
2019-03-31T08:46:03.903Z,1019.8
2019-03-31T08:47:03.888Z,1019.8
2019-03-31T08:48:03.756Z,1019.9
2019-03-31T08:49:03.455Z,1019.7
2019-03-31T08:50:03.782Z,1019.9
2019-03-31T08:51:03.665Z,1019.9
2019-03-31T08:52:03.386Z,1019.8
2019-03-31T08:53:03.464Z,1019.9
2019-03-31T08:54:03.629Z,1019.8
2019-03-31T08:55:03.552Z,1019.7
2019-03-31T08:56:03.470Z,1019.9
2019-03-31T08:57:03.467Z,1019.7
2019-03-31T08:58:03.304Z,1019.6
2019-03-31T08:59:03.249Z,1019.7
2019-03-31T09:00:03.096Z,1019.6
2019-03-31T09:01:03.175Z,1019.6
2019-03-31T09:02:04.029Z,1019.6
2019-03-31T09:03:03.091Z,1019.6
2019-03-31T09:04:02.903Z,1019.7
2019-03-31T09:05:04.020Z,1019.6
2019-03-31T09:06:03.933Z,1019.7
2019-03-31T09:07:03.915Z,1019.6
2019-03-31T09:08:03.938Z,1019.6
2019-03-31T09:09:03.841Z,1019.6
2019-03-31T09:10:03.510Z,1019.6
2019-03-31T09:11:03.653Z,1019.5
2019-03-31T09:12:03.613Z,1019.5
2019-03-31T09:13:03.586Z,1019.4
2019-03-31T09:14:03.545Z,1019.4
2019-03-31T09:15:03.843Z,1019.3
2019-03-31T09:16:03.523Z,1019.3
2019-03-31T09:17:03.501Z,1019.3
2019-03-31T09:18:03.476Z,1019.3
2019-03-31T09:19:03.500Z,1019.3
2019-03-31T09:20:03.671Z,1019.3
2019-03-31T09:21:03.480Z,1019.3
2019-03-31T09:22:03.495Z,1019.1
2019-03-31T09:23:03.031Z,1019
2019-03-31T09:24:03.219Z,1019.1
2019-03-31T09:25:03.075Z,1019
2019-03-31T09:26:03.223Z,1019
2019-03-31T09:27:03.098Z,1018.9
2019-03-31T09:28:02.970Z,1018.9
2019-03-31T09:29:03.070Z,1018.8
2019-03-31T09:30:03.602Z,1018.8
2019-03-31T09:31:02.914Z,1019
2019-03-31T09:32:03.872Z,1018.9
2019-03-31T09:33:03.671Z,1018.9
2019-03-31T09:34:03.780Z,1018.9
2019-03-31T09:35:03.755Z,1018.9
2019-03-31T09:36:17.316Z,1019.1
2019-03-31T09:37:03.544Z,1019
2019-03-31T09:38:03.485Z,1019
2019-03-31T09:39:03.547Z,1019
2019-03-31T09:40:03.279Z,1019.1
2019-03-31T09:41:03.610Z,1019
2019-03-31T09:42:03.315Z,1019.1
2019-03-31T09:43:03.357Z,1019.1
2019-03-31T09:44:03.532Z,1019.2
2019-03-31T09:45:03.756Z,1019
2019-03-31T09:46:03.374Z,1019
2019-03-31T09:47:03.505Z,1019
2019-03-31T09:48:03.400Z,1018.9
2019-03-31T09:49:03.442Z,1019
2019-03-31T09:50:03.569Z,1019
2019-03-31T09:51:03.283Z,1019.1
2019-03-31T09:52:03.141Z,1019
2019-03-31T09:53:03.207Z,1019
2019-03-31T09:54:03.015Z,1019
2019-03-31T09:55:03.076Z,1019.2
2019-03-31T09:56:02.986Z,1019.1
2019-03-31T09:57:03.328Z,1018.9
2019-03-31T09:58:03.112Z,1019
2019-03-31T09:59:02.975Z,1018.8
2019-03-31T10:00:03.453Z,1018.8
2019-03-31T10:01:03.067Z,1018.7
2019-03-31T10:02:03.439Z,1018.7
2019-03-31T10:03:03.190Z,1018.7
2019-03-31T10:04:03.034Z,1018.7
2019-03-31T10:05:03.509Z,1018.7
2019-03-31T10:06:11.687Z,1018.7
2019-03-31T10:07:03.089Z,1018.7
2019-03-31T10:08:02.884Z,1018.6
2019-03-31T10:09:03.280Z,1018.5
2019-03-31T10:10:03.796Z,1018.4
2019-03-31T10:11:04.003Z,1018.4
2019-03-31T10:12:03.607Z,1018.5
2019-03-31T10:13:03.977Z,1018.5
2019-03-31T10:14:03.606Z,1018.7
2019-03-31T10:15:03.835Z,1018.6
2019-03-31T10:16:03.934Z,1018.8
2019-03-31T10:17:03.397Z,1018.8
2019-03-31T10:18:03.546Z,1018.8
2019-03-31T10:19:03.356Z,1018.5
2019-03-31T10:20:03.846Z,1018.7
2019-03-31T10:21:03.440Z,1018.6
2019-03-31T10:22:03.598Z,1018.6
2019-03-31T10:23:03.441Z,1018.5
2019-03-31T10:24:03.266Z,1018.4
2019-03-31T10:25:03.051Z,1018.4
2019-03-31T10:26:03.220Z,1018.3
2019-03-31T10:27:03.335Z,1018.4
2019-03-31T10:28:03.197Z,1018.5
2019-03-31T10:29:03.192Z,1018.3
2019-03-31T10:30:03.683Z,1018.3
2019-03-31T10:31:03.317Z,1018.3
2019-03-31T10:32:03.269Z,1018.3
2019-03-31T10:33:03.085Z,1018.2
2019-03-31T10:34:03.009Z,1018
2019-03-31T10:35:02.938Z,1018.1
2019-03-31T10:36:03.062Z,1018
2019-03-31T10:37:03.086Z,1017.8
2019-03-31T10:38:03.795Z,1018
2019-03-31T10:39:03.041Z,1018
2019-03-31T10:40:03.908Z,1018
2019-03-31T10:41:03.890Z,1017.9
2019-03-31T10:42:03.774Z,1018
2019-03-31T10:43:03.554Z,1018
2019-03-31T10:44:04.335Z,1018
2019-03-31T10:45:03.672Z,1017.9
2019-03-31T10:46:03.605Z,1018
2019-03-31T10:47:03.490Z,1017.9
2019-03-31T10:48:03.538Z,1018
2019-03-31T10:49:03.294Z,1018
2019-03-31T10:50:03.326Z,1017.9
2019-03-31T10:51:03.522Z,1017.9
2019-03-31T10:52:03.428Z,1017.9
2019-03-31T10:53:03.060Z,1018
2019-03-31T10:54:05.154Z,1018
2019-03-31T10:55:03.174Z,1018
2019-03-31T10:56:03.896Z,1017.8
2019-03-31T10:57:03.208Z,1018
2019-03-31T10:58:03.184Z,1017.7
2019-03-31T10:59:03.005Z,1017.8
2019-03-31T11:00:03.772Z,1017.8
2019-03-31T11:01:04.272Z,1017.8
2019-03-31T11:02:03.939Z,1017.9
2019-03-31T11:03:03.804Z,1017.9
2019-03-31T11:04:03.976Z,1018
2019-03-31T11:05:03.832Z,1018.1
2019-03-31T11:06:03.461Z,1018.1
2019-03-31T11:07:04.200Z,1018
2019-03-31T11:08:03.552Z,1018.1
2019-03-31T11:09:03.821Z,1018.2
2019-03-31T11:10:03.594Z,1018.1
2019-03-31T11:11:03.255Z,1018
2019-03-31T11:12:03.592Z,1018
2019-03-31T11:13:03.479Z,1018
2019-03-31T11:14:03.555Z,1018
2019-03-31T11:15:03.523Z,1018
2019-03-31T11:16:03.602Z,1017.9
2019-03-31T11:17:03.471Z,1017.9
2019-03-31T11:18:03.547Z,1018
2019-03-31T11:19:03.554Z,1018
2019-03-31T11:20:03.424Z,1017.9
2019-03-31T11:21:03.052Z,1017.9
2019-03-31T11:22:03.438Z,1017.8
2019-03-31T11:23:03.202Z,1018
2019-03-31T11:24:04.322Z,1018
2019-03-31T11:25:03.247Z,1017.9
2019-03-31T11:26:03.945Z,1017.9
2019-03-31T11:27:03.710Z,1018
2019-03-31T11:28:03.736Z,1018
2019-03-31T11:29:03.279Z,1018
2019-03-31T11:30:03.775Z,1018
2019-03-31T11:31:03.114Z,1017.8
2019-03-31T11:32:03.540Z,1017.7
2019-03-31T11:33:03.183Z,1017.6
2019-03-31T11:34:03.601Z,1017.6
2019-03-31T11:35:03.812Z,1017.5
2019-03-31T11:36:03.808Z,1017.7
2019-03-31T11:37:14.537Z,1017.5
2019-03-31T11:38:03.627Z,1017.6
2019-03-31T11:39:03.756Z,1017.7
2019-03-31T11:40:03.899Z,1017.6
2019-03-31T11:41:03.594Z,1017.6
2019-03-31T11:42:03.849Z,1017.5
2019-03-31T11:43:03.390Z,1017.5
2019-03-31T11:44:03.507Z,1017.5
2019-03-31T11:45:03.466Z,1017.5
2019-03-31T11:46:03.850Z,1017.5
2019-03-31T11:47:03.184Z,1017.4
2019-03-31T11:48:03.223Z,1017.4
2019-03-31T11:49:03.061Z,1017.5
2019-03-31T11:50:03.342Z,1017.5
2019-03-31T11:51:03.065Z,1017.5
2019-03-31T11:52:03.046Z,1017.4
2019-03-31T11:53:03.254Z,1017.5
2019-03-31T11:54:02.898Z,1017.4
2019-03-31T11:55:03.089Z,1017.5
2019-03-31T11:56:03.921Z,1017.4
2019-03-31T11:57:03.887Z,1017.4
2019-03-31T11:58:03.980Z,1017.4
2019-03-31T11:59:03.306Z,1017.3
2019-03-31T12:00:03.866Z,1017.4
2019-03-31T12:01:03.083Z,1017.5
2019-03-31T12:02:03.782Z,1017.5
2019-03-31T12:03:03.813Z,1017.4
2019-03-31T12:04:03.071Z,1017.5
2019-03-31T12:05:06.655Z,1017.5
2019-03-31T12:06:03.896Z,1017.4
2019-03-31T12:07:03.664Z,1017.3
2019-03-31T12:08:03.835Z,1017.3
2019-03-31T12:09:03.621Z,1017.4
2019-03-31T12:10:03.644Z,1017.4
2019-03-31T12:11:03.647Z,1017.4
2019-03-31T12:12:03.897Z,1017.5
2019-03-31T12:13:03.530Z,1017.4
2019-03-31T12:14:03.581Z,1017.5
2019-03-31T12:15:03.567Z,1017.5
2019-03-31T12:16:03.488Z,1017.6
2019-03-31T12:17:03.876Z,1017.7
2019-03-31T12:18:03.528Z,1017.7
2019-03-31T12:19:03.514Z,1017.6
2019-03-31T12:20:03.545Z,1017.6
2019-03-31T12:21:03.585Z,1017.7
2019-03-31T12:22:03.492Z,1017.6
2019-03-31T12:23:03.429Z,1017.5
2019-03-31T12:24:03.191Z,1017.5
2019-03-31T12:25:03.086Z,1017.5
2019-03-31T12:26:03.182Z,1017.5
2019-03-31T12:27:02.882Z,1017.5
2019-03-31T12:28:03.921Z,1017.5
2019-03-31T12:29:03.938Z,1017.5
2019-03-31T12:30:02.831Z,1017.6
2019-03-31T12:31:03.915Z,1017.5
2019-03-31T12:32:03.114Z,1017.3
2019-03-31T12:33:03.806Z,1017.4
2019-03-31T12:34:03.995Z,1017.3
2019-03-31T12:35:03.855Z,1017.3